createdAt,value
2019-01-11T00:00:11.302Z,11.90
2019-01-11T00:02:43.317Z,11.87
2019-01-11T00:05:15.299Z,11.20
2019-01-11T00:07:47.267Z,16.40
2019-01-11T00:10:19.247Z,14.23
2019-01-11T00:12:51.251Z,11.50
2019-01-11T00:15:23.214Z,10.47
2019-01-11T00:17:55.269Z,9.77
2019-01-11T00:20:27.235Z,9.57
2019-01-11T00:22:59.228Z,9.70
2019-01-11T00:25:31.220Z,10.07
2019-01-11T00:28:03.482Z,10.57
2019-01-11T00:30:35.472Z,9.73
2019-01-11T00:33:07.469Z,9.97
2019-01-11T00:35:39.465Z,9.50
2019-01-11T00:38:11.506Z,9.43
2019-01-11T00:40:43.496Z,9.83
2019-01-11T00:43:15.453Z,10.80
2019-01-11T00:45:47.469Z,10.73
2019-01-11T00:48:19.541Z,11.70
2019-01-11T00:50:51.542Z,11.07
2019-01-11T00:53:23.530Z,12.80
2019-01-11T00:55:55.522Z,11.97
2019-01-11T00:58:27.500Z,12.07
2019-01-11T01:00:59.451Z,12.93
2019-01-11T01:03:31.418Z,13.93
2019-01-11T01:06:04.100Z,12.23
2019-01-11T01:08:36.051Z,12.33
2019-01-11T01:11:08.051Z,12.00
2019-01-11T01:13:40.045Z,12.27
2019-01-11T01:16:12.079Z,12.90
2019-01-11T01:18:44.054Z,13.17
2019-01-11T01:21:16.047Z,12.70
2019-01-11T01:23:48.012Z,12.03
2019-01-11T01:26:19.999Z,12.40
2019-01-11T01:28:51.984Z,12.50
2019-01-11T01:31:23.971Z,11.97
2019-01-11T01:33:55.954Z,12.57
2019-01-11T01:36:27.994Z,13.17
2019-01-11T01:38:59.949Z,12.80
2019-01-11T01:41:31.933Z,13.00
2019-01-11T01:44:03.902Z,13.00
2019-01-11T01:46:35.874Z,11.83
2019-01-11T01:49:07.864Z,15.37
2019-01-11T01:51:39.867Z,14.97
2019-01-11T01:54:11.834Z,14.03
2019-01-11T01:56:43.808Z,13.73
2019-01-11T01:59:15.804Z,14.50
2019-01-11T02:01:47.798Z,13.03
2019-01-11T02:04:19.756Z,13.90
2019-01-11T02:06:51.763Z,12.87
2019-01-11T02:09:23.753Z,13.07
2019-01-11T02:11:55.722Z,13.60
2019-01-11T02:14:27.707Z,12.67
2019-01-11T02:16:59.709Z,13.00
2019-01-11T02:19:33.097Z,13.93
2019-01-11T02:22:05.161Z,13.37
2019-01-11T02:24:37.139Z,14.27
2019-01-11T02:27:09.109Z,13.97
2019-01-11T02:29:41.046Z,13.83
2019-01-11T02:32:13.143Z,14.47
2019-01-11T02:34:46.479Z,14.47
2019-01-11T02:37:18.470Z,14.17
2019-01-11T02:39:50.475Z,13.50
2019-01-11T02:42:22.418Z,14.73
2019-01-11T02:44:54.388Z,12.77
2019-01-11T02:47:26.338Z,13.17
2019-01-11T02:49:58.309Z,11.03
2019-01-11T02:52:30.288Z,11.93
2019-01-11T02:55:02.290Z,12.13
2019-01-11T02:57:34.305Z,11.80
2019-01-11T03:00:10.556Z,12.13
2019-01-11T03:02:42.754Z,11.73
2019-01-11T03:05:14.960Z,10.77
2019-01-11T03:07:46.995Z,10.87
2019-01-11T03:10:20.459Z,10.23
2019-01-11T03:12:52.412Z,10.37
2019-01-11T03:15:24.401Z,9.80
2019-01-11T03:17:56.357Z,9.80
2019-01-11T03:20:28.442Z,10.60
2019-01-11T03:23:00.491Z,10.40
2019-01-11T03:25:32.479Z,9.43
2019-01-11T03:28:04.427Z,11.10
2019-01-11T03:30:36.473Z,10.90
2019-01-11T03:33:08.407Z,10.63
2019-01-11T03:35:40.413Z,9.60
2019-01-11T03:38:12.379Z,9.80
2019-01-11T03:40:44.365Z,9.40
2019-01-11T03:43:16.325Z,9.90
2019-01-11T03:45:48.299Z,9.97
2019-01-11T03:48:20.258Z,10.30
2019-01-11T03:50:52.236Z,10.23
2019-01-11T03:53:24.190Z,10.63
2019-01-11T03:55:56.282Z,10.00
2019-01-11T03:58:28.209Z,11.33
2019-01-11T04:01:00.177Z,12.70
2019-01-11T04:03:32.137Z,14.37
2019-01-11T04:06:04.128Z,14.43
2019-01-11T04:08:36.097Z,14.87
2019-01-11T04:11:08.472Z,13.07
2019-01-11T04:13:40.415Z,12.40
2019-01-11T04:16:12.440Z,10.50
2019-01-11T04:19:09.831Z,11.30
2019-01-11T04:21:48.708Z,10.37
2019-01-11T04:24:22.565Z,12.07
2019-01-11T04:26:54.565Z,11.73
2019-01-11T04:29:26.505Z,11.60
2019-01-11T04:31:58.492Z,11.87
2019-01-11T04:34:30.551Z,13.57
2019-01-11T04:37:02.561Z,14.63
2019-01-11T04:39:34.536Z,13.80
2019-01-11T04:42:06.523Z,14.37
2019-01-11T04:44:38.621Z,15.87
2019-01-11T04:47:10.601Z,14.30
2019-01-11T04:49:42.617Z,15.53
2019-01-11T04:52:14.587Z,17.10
2019-01-11T04:54:46.611Z,17.33
2019-01-11T04:57:18.553Z,16.33
2019-01-11T04:59:50.533Z,16.70
2019-01-11T05:02:22.483Z,17.43
2019-01-11T05:04:54.502Z,16.63
2019-01-11T05:07:26.482Z,16.90
2019-01-11T05:09:58.478Z,16.97
2019-01-11T05:12:30.448Z,14.97
2019-01-11T05:15:02.501Z,15.70
2019-01-11T05:17:34.394Z,14.60
2019-01-11T05:20:08.192Z,15.77
2019-01-11T05:22:40.834Z,15.60
2019-01-11T05:25:13.191Z,16.93
2019-01-11T05:27:45.143Z,16.17
2019-01-11T05:30:18.202Z,15.30
2019-01-11T05:32:50.176Z,17.70
2019-01-11T05:35:22.211Z,16.40
2019-01-11T05:37:54.226Z,17.33
2019-01-11T05:40:26.211Z,19.60
2019-01-11T05:42:58.176Z,17.07
2019-01-11T05:45:30.164Z,16.83
2019-01-11T05:48:02.125Z,17.13
2019-01-11T05:50:34.123Z,19.13
2019-01-11T05:53:06.117Z,17.53
2019-01-11T05:55:44.950Z,16.63
2019-01-11T05:58:42.602Z,18.80
2019-01-11T06:01:14.613Z,21.97
2019-01-11T06:03:46.591Z,18.50
2019-01-11T06:06:18.600Z,17.83
2019-01-11T06:08:50.583Z,17.43
2019-01-11T06:11:23.095Z,16.07
2019-01-11T06:13:55.057Z,16.90
2019-01-11T06:16:27.074Z,14.73
2019-01-11T06:18:59.065Z,16.93
2019-01-11T06:21:31.041Z,16.60
2019-01-11T06:24:03.028Z,16.20
2019-01-11T06:26:35.040Z,17.17
2019-01-11T06:29:07.019Z,17.53
2019-01-11T06:31:38.989Z,17.03
2019-01-11T06:34:10.959Z,15.70
2019-01-11T06:36:42.978Z,18.33
2019-01-11T06:39:16.348Z,16.57
2019-01-11T06:41:53.329Z,16.03
2019-01-11T06:44:25.335Z,16.27
2019-01-11T06:46:57.350Z,16.97
2019-01-11T06:49:29.316Z,14.63
2019-01-11T06:52:01.332Z,14.97
2019-01-11T06:54:33.352Z,14.83
2019-01-11T06:57:05.361Z,15.63
2019-01-11T06:59:37.354Z,15.07
2019-01-11T07:02:09.369Z,16.07
2019-01-11T07:04:41.365Z,16.17
2019-01-11T07:07:13.341Z,15.97
2019-01-11T07:09:45.355Z,15.90
2019-01-11T07:12:18.520Z,16.67
2019-01-11T07:14:50.519Z,15.00
2019-01-11T07:17:22.496Z,16.97
2019-01-11T07:19:54.508Z,16.20
2019-01-11T07:22:26.493Z,18.00
2019-01-11T07:24:58.493Z,17.37
2019-01-11T07:27:33.515Z,16.50
2019-01-11T07:30:06.044Z,15.30
2019-01-11T07:32:38.018Z,14.67
2019-01-11T07:35:10.133Z,15.10
2019-01-11T07:37:42.113Z,15.60
2019-01-11T07:40:14.112Z,16.23
2019-01-11T07:42:46.078Z,15.57
2019-01-11T07:45:18.088Z,15.47
2019-01-11T07:47:50.052Z,16.53
2019-01-11T07:50:22.252Z,16.57
2019-01-11T07:52:54.256Z,17.10
2019-01-11T07:55:26.277Z,17.00
2019-01-11T07:57:58.239Z,18.40
2019-01-11T08:00:30.267Z,16.63
2019-01-11T08:03:02.250Z,16.37
2019-01-11T08:05:34.233Z,15.77
2019-01-11T08:08:08.541Z,16.67
2019-01-11T08:10:40.546Z,16.40
2019-01-11T08:13:12.519Z,16.57
2019-01-11T08:15:44.507Z,17.27
2019-01-11T08:18:17.284Z,17.40
2019-01-11T08:20:55.975Z,16.53
2019-01-11T08:23:23.152Z,17.70
2019-01-11T08:25:55.157Z,17.50
2019-01-11T08:28:27.946Z,18.27
2019-01-11T08:30:59.967Z,15.70
2019-01-11T08:33:34.849Z,17.07
2019-01-11T08:36:06.879Z,16.40
2019-01-11T08:38:38.869Z,17.03
2019-01-11T08:41:10.888Z,16.20
2019-01-11T08:43:42.876Z,17.33
2019-01-11T08:46:14.859Z,17.20
2019-01-11T08:48:47.048Z,15.43
2019-01-11T08:51:19.050Z,16.90
2019-01-11T08:53:51.057Z,17.93
2019-01-11T08:56:23.059Z,18.17
2019-01-11T08:58:55.029Z,17.73
2019-01-11T09:01:27.065Z,17.20
2019-01-11T09:03:59.023Z,17.30
2019-01-11T09:06:31.057Z,16.97
2019-01-11T09:09:06.387Z,18.47
2019-01-11T09:11:38.403Z,18.67
2019-01-11T09:14:24.084Z,18.00
2019-01-11T09:16:56.085Z,17.57
2019-01-11T09:19:28.055Z,18.97
2019-01-11T09:22:00.079Z,18.87
2019-01-11T09:24:32.099Z,16.37
2019-01-11T09:27:04.084Z,17.70
2019-01-11T09:29:36.113Z,18.30
2019-01-11T09:32:08.188Z,18.87
2019-01-11T09:34:40.164Z,19.87
2019-01-11T09:37:12.183Z,18.40
2019-01-11T09:39:44.170Z,19.00
2019-01-11T09:42:16.137Z,21.13
2019-01-11T09:44:48.119Z,20.43
2019-01-11T09:47:20.096Z,20.17
2019-01-11T09:49:52.182Z,19.63
2019-01-11T09:52:24.172Z,18.43
2019-01-11T09:54:56.187Z,19.83
2019-01-11T09:57:28.161Z,19.63
2019-01-11T10:00:00.170Z,21.27
2019-01-11T10:02:36.077Z,19.67
2019-01-11T10:05:09.002Z,20.57
2019-01-11T10:07:40.961Z,20.47
2019-01-11T10:10:13.792Z,19.97
2019-01-11T10:12:45.768Z,19.50
2019-01-11T10:15:17.762Z,21.70
2019-01-11T10:17:50.440Z,19.80
2019-01-11T10:20:22.439Z,20.60
2019-01-11T10:22:54.392Z,19.77
2019-01-11T10:25:26.384Z,19.77
2019-01-11T10:27:58.374Z,19.23
2019-01-11T10:30:30.368Z,18.87
2019-01-11T10:33:02.349Z,21.37
2019-01-11T10:35:34.391Z,20.33
2019-01-11T10:38:06.373Z,19.23
2019-01-11T10:40:38.432Z,19.23
2019-01-11T10:43:10.398Z,19.43
2019-01-11T10:45:42.426Z,19.33
2019-01-11T10:48:14.452Z,19.67
2019-01-11T10:50:46.469Z,18.50
2019-01-11T10:53:18.455Z,19.57
2019-01-11T10:55:50.427Z,19.47
2019-01-11T10:58:22.425Z,18.47
2019-01-11T11:00:54.404Z,18.13
2019-01-11T11:03:26.415Z,19.37
2019-01-11T11:05:58.419Z,17.53
2019-01-11T11:08:30.403Z,18.63
2019-01-11T11:11:02.428Z,18.77
2019-01-11T11:13:34.414Z,17.13
2019-01-11T11:16:06.425Z,17.67
2019-01-11T11:18:38.400Z,15.97
2019-01-11T11:21:10.439Z,17.10
2019-01-11T11:23:42.563Z,15.77
2019-01-11T11:26:14.571Z,17.07
2019-01-11T11:28:46.548Z,16.47
2019-01-11T11:31:18.565Z,16.80
2019-01-11T11:33:50.553Z,16.47
2019-01-11T11:36:22.668Z,15.97
2019-01-11T11:38:54.642Z,15.93
2019-01-11T11:41:26.625Z,15.40
2019-01-11T11:43:58.639Z,16.37
2019-01-11T11:46:30.674Z,17.13
2019-01-11T11:49:02.652Z,16.70
2019-01-11T11:51:41.087Z,15.30
2019-01-11T11:54:08.600Z,15.17
2019-01-11T11:56:40.596Z,16.13
2019-01-11T11:59:12.608Z,15.33
2019-01-11T12:01:46.758Z,17.10
2019-01-11T12:04:18.569Z,16.77
2019-01-11T12:06:50.565Z,17.13
2019-01-11T12:09:22.590Z,17.23
2019-01-11T12:11:54.636Z,17.03
2019-01-11T12:14:26.593Z,16.53
2019-01-11T12:16:58.617Z,17.17
2019-01-11T12:19:30.670Z,16.80
2019-01-11T12:22:02.675Z,17.50
2019-01-11T12:24:34.686Z,17.97
2019-01-11T12:27:06.716Z,17.87
2019-01-11T12:29:38.726Z,17.20
2019-01-11T12:32:10.738Z,19.07
2019-01-11T12:34:42.737Z,18.17
2019-01-11T12:37:14.787Z,18.03
2019-01-11T12:39:46.829Z,17.50
2019-01-11T12:42:18.823Z,16.60
2019-01-11T12:44:50.884Z,17.53
2019-01-11T12:47:22.891Z,17.73
2019-01-11T12:49:54.897Z,19.47
2019-01-11T12:52:26.906Z,17.53
2019-01-11T12:54:58.943Z,20.07
2019-01-11T12:57:30.924Z,17.43
2019-01-11T13:00:24.644Z,18.33
2019-01-11T13:02:56.649Z,21.80
2019-01-11T13:05:28.646Z,19.70
2019-01-11T13:08:00.708Z,18.53
2019-01-11T13:10:32.730Z,18.07
2019-01-11T13:13:04.856Z,18.10
2019-01-11T13:15:36.925Z,16.20
2019-01-11T13:18:08.965Z,17.47
2019-01-11T13:20:41.026Z,16.70
2019-01-11T13:23:13.043Z,17.80
2019-01-11T13:25:45.119Z,17.97
2019-01-11T13:28:17.136Z,16.40
2019-01-11T13:30:49.174Z,16.77
2019-01-11T13:33:21.232Z,21.80
2019-01-11T13:35:53.340Z,17.17
2019-01-11T13:38:25.358Z,18.67
2019-01-11T13:40:57.389Z,15.73
2019-01-11T13:43:29.411Z,14.10
2019-01-11T13:46:01.470Z,14.77
2019-01-11T13:48:33.516Z,14.10
2019-01-11T13:51:05.672Z,14.43
2019-01-11T13:53:37.778Z,14.73
2019-01-11T13:56:09.776Z,17.57
2019-01-11T13:58:41.784Z,17.80
2019-01-11T14:01:13.850Z,14.80
2019-01-11T14:03:45.847Z,15.70
2019-01-11T14:06:17.907Z,16.07
2019-01-11T14:08:49.946Z,16.37
2019-01-11T14:11:21.985Z,16.47
2019-01-11T14:13:54.019Z,16.27
2019-01-11T14:16:26.194Z,16.60
2019-01-11T14:18:58.225Z,18.80
2019-01-11T14:21:30.303Z,18.77
2019-01-11T14:24:02.360Z,20.47
2019-01-11T14:26:34.459Z,28.57
2019-01-11T14:29:06.456Z,23.47
2019-01-11T14:31:38.478Z,19.00
2019-01-11T14:34:10.518Z,18.27
2019-01-11T14:36:42.503Z,16.03
2019-01-11T14:39:14.518Z,17.07
2019-01-11T14:41:46.716Z,18.40
2019-01-11T14:44:18.745Z,17.37
2019-01-11T14:46:50.775Z,18.50
2019-01-11T14:49:22.830Z,17.03
2019-01-11T14:51:54.895Z,16.73
2019-01-11T14:54:26.925Z,17.00
2019-01-11T14:56:58.947Z,18.90
2019-01-11T14:59:31.005Z,17.80
2019-01-11T15:02:03.132Z,20.63
2019-01-11T15:04:35.199Z,18.27
2019-01-11T15:07:07.219Z,17.53
2019-01-11T15:10:20.033Z,19.00
2019-01-11T15:12:52.032Z,19.10
2019-01-11T15:15:24.063Z,15.93
2019-01-11T15:17:56.061Z,18.10
2019-01-11T15:20:28.071Z,17.10
2019-01-11T15:23:00.128Z,17.10
2019-01-11T15:25:32.181Z,15.80
2019-01-11T15:28:04.203Z,17.20
2019-01-11T15:30:36.253Z,16.83
2019-01-11T15:33:08.232Z,17.80
2019-01-11T15:35:40.301Z,15.50
2019-01-11T15:38:12.505Z,15.03
2019-01-11T15:40:44.532Z,15.60
2019-01-11T15:43:16.517Z,16.10
2019-01-11T15:45:48.544Z,18.07
2019-01-11T15:48:45.853Z,20.03
2019-01-11T15:51:20.568Z,17.30
2019-01-11T15:53:52.589Z,19.27
2019-01-11T15:56:25.092Z,18.10
2019-01-11T15:58:57.115Z,17.70
2019-01-11T16:01:29.253Z,19.03
2019-01-11T16:04:05.561Z,18.57
2019-01-11T16:06:39.091Z,58.07
2019-01-11T16:09:14.631Z,22.47
2019-01-11T16:11:50.410Z,20.47
2019-01-11T16:14:59.087Z,25.87
2019-01-11T16:17:31.135Z,18.83
2019-01-11T16:20:06.061Z,18.80
2019-01-11T16:22:39.656Z,17.03
2019-01-11T16:25:12.819Z,16.53
2019-01-11T16:27:45.011Z,17.07
2019-01-11T16:30:17.035Z,16.37
2019-01-11T16:32:49.052Z,16.73
2019-01-11T16:35:21.072Z,22.43
2019-01-11T16:37:53.157Z,16.87
2019-01-11T16:40:25.151Z,15.87
2019-01-11T16:42:57.213Z,17.57
2019-01-11T16:45:29.198Z,16.80
2019-01-11T16:48:01.207Z,17.33
2019-01-11T16:50:33.187Z,16.57
2019-01-11T16:53:05.254Z,17.33
2019-01-11T16:55:37.235Z,15.73
2019-01-11T16:58:09.217Z,19.13
2019-01-11T17:00:41.222Z,18.63
2019-01-11T17:03:13.280Z,15.83
2019-01-11T17:05:45.299Z,16.23
2019-01-11T17:08:17.326Z,16.20
2019-01-11T17:10:49.354Z,16.90
2019-01-11T17:13:21.377Z,16.67
2019-01-11T17:15:53.367Z,17.17
2019-01-11T17:18:25.387Z,16.43
2019-01-11T17:20:57.401Z,16.10
2019-01-11T17:23:29.402Z,14.03
2019-01-11T17:26:01.466Z,13.77
2019-01-11T17:28:33.471Z,14.40
2019-01-11T17:31:05.488Z,15.53
2019-01-11T17:33:37.506Z,13.30
2019-01-11T17:36:09.574Z,16.40
2019-01-11T17:38:41.656Z,13.37
2019-01-11T17:41:13.707Z,14.07
2019-01-11T17:43:45.850Z,15.07
2019-01-11T17:46:17.927Z,14.57
2019-01-11T17:48:49.976Z,13.90
2019-01-11T17:51:22.022Z,13.70
2019-01-11T17:53:54.094Z,16.40
2019-01-11T17:56:26.147Z,17.40
2019-01-11T17:58:58.192Z,17.07
2019-01-11T18:01:30.245Z,14.50
2019-01-11T18:04:02.270Z,13.47
2019-01-11T18:06:34.298Z,11.73
2019-01-11T18:09:06.868Z,12.93
2019-01-11T18:11:38.918Z,13.53
2019-01-11T18:14:10.950Z,15.17
2019-01-11T18:16:43.032Z,15.13
2019-01-11T18:19:15.124Z,14.50
2019-01-11T18:21:47.166Z,13.90
2019-01-11T18:24:19.172Z,12.73
2019-01-11T18:26:51.167Z,13.77
2019-01-11T18:29:23.190Z,13.73
2019-01-11T18:31:55.209Z,13.70
2019-01-11T18:34:27.238Z,12.63
2019-01-11T18:36:59.369Z,13.00
2019-01-11T18:39:31.404Z,13.60
2019-01-11T18:42:03.480Z,13.67
2019-01-11T18:44:35.572Z,36.53
2019-01-11T18:47:07.616Z,16.13
2019-01-11T18:49:39.584Z,17.60
2019-01-11T18:52:11.639Z,16.57
2019-01-11T18:54:43.666Z,13.57
2019-01-11T18:57:15.849Z,17.70
2019-01-11T18:59:47.968Z,15.17
2019-01-11T19:02:20.148Z,16.90
2019-01-11T19:04:52.226Z,17.93
2019-01-11T19:07:24.272Z,15.63
2019-01-11T19:09:56.913Z,14.57
2019-01-11T19:12:28.962Z,17.40
2019-01-11T19:15:01.011Z,17.20
2019-01-11T19:17:33.102Z,13.93
2019-01-11T19:20:11.185Z,14.87
2019-01-11T19:22:43.232Z,15.07
2019-01-11T19:25:15.321Z,16.57
2019-01-11T19:27:48.286Z,14.77
2019-01-11T19:30:25.409Z,14.47
2019-01-11T19:32:57.476Z,14.83
2019-01-11T19:35:29.562Z,14.30
2019-01-11T19:38:01.665Z,14.77
2019-01-11T19:40:33.755Z,18.20
2019-01-11T19:43:05.831Z,17.03
2019-01-11T19:45:37.890Z,17.80
2019-01-11T19:48:09.991Z,16.83
2019-01-11T19:50:42.065Z,17.50
2019-01-11T19:53:14.430Z,15.20
2019-01-11T19:55:46.476Z,16.17
2019-01-11T19:58:18.596Z,15.87
2019-01-11T20:00:50.796Z,18.63
2019-01-11T20:03:22.918Z,18.10
2019-01-11T20:05:54.991Z,20.43
2019-01-11T20:08:27.064Z,19.63
2019-01-11T20:10:59.108Z,16.70
2019-01-11T20:13:31.204Z,16.90
2019-01-11T20:16:03.505Z,17.40
2019-01-11T20:18:35.651Z,17.10
2019-01-11T20:21:07.783Z,16.10
2019-01-11T20:23:39.826Z,16.17
2019-01-11T20:26:11.924Z,17.37
2019-01-11T20:28:44.046Z,13.93
2019-01-11T20:31:16.156Z,13.90
2019-01-11T20:33:48.199Z,17.07
2019-01-11T20:36:20.246Z,14.30
2019-01-11T20:38:52.353Z,14.27
2019-01-11T20:41:24.480Z,13.60
2019-01-11T20:43:56.500Z,14.03
2019-01-11T20:46:28.556Z,15.20
2019-01-11T20:49:00.637Z,15.30
2019-01-11T20:51:32.711Z,13.97
2019-01-11T20:54:04.749Z,14.93
2019-01-11T20:56:36.762Z,13.77
2019-01-11T20:59:08.863Z,14.30
2019-01-11T21:01:40.925Z,13.43
2019-01-11T21:04:13.036Z,14.50
2019-01-11T21:06:45.136Z,14.50
2019-01-11T21:09:17.235Z,14.13
2019-01-11T21:11:49.244Z,13.60
2019-01-11T21:14:21.346Z,13.43
2019-01-11T21:16:53.379Z,14.17
2019-01-11T21:19:44.893Z,15.40
2019-01-11T21:22:16.985Z,14.40
2019-01-11T21:24:49.098Z,14.67
2019-01-11T21:27:21.145Z,14.93
2019-01-11T21:29:53.187Z,15.17
2019-01-11T21:32:25.204Z,14.83
2019-01-11T21:34:57.304Z,15.37
2019-01-11T21:37:29.353Z,15.47
2019-01-11T21:40:01.393Z,13.33
2019-01-11T21:42:33.397Z,13.87
2019-01-11T21:45:05.949Z,14.27
2019-01-11T21:47:38.092Z,14.37
2019-01-11T21:50:12.898Z,15.43
2019-01-11T21:52:44.955Z,13.83
2019-01-11T21:55:57.786Z,15.70
2019-01-11T21:58:29.811Z,14.83
2019-01-11T22:01:01.912Z,15.07
2019-01-11T22:03:34.046Z,15.57
2019-01-11T22:06:06.103Z,15.20
2019-01-11T22:08:38.228Z,16.03
2019-01-11T22:11:22.358Z,15.27
2019-01-11T22:13:44.211Z,16.20
2019-01-11T22:16:16.344Z,15.40
2019-01-11T22:18:48.387Z,13.13
2019-01-11T22:21:20.436Z,17.27
2019-01-11T22:23:52.528Z,14.33
2019-01-11T22:26:24.585Z,15.20
2019-01-11T22:28:56.642Z,14.43
2019-01-11T22:31:28.681Z,15.73
2019-01-11T22:34:00.755Z,15.20
2019-01-11T22:36:32.803Z,15.53
2019-01-11T22:39:07.307Z,14.33
2019-01-11T22:41:39.354Z,15.30
2019-01-11T22:44:11.401Z,15.30
2019-01-11T22:46:43.467Z,15.97
2019-01-11T22:49:15.487Z,15.20
2019-01-11T22:51:47.543Z,15.53
2019-01-11T22:54:19.543Z,15.20
2019-01-11T22:56:51.540Z,14.50
2019-01-11T22:59:23.544Z,16.83
2019-01-11T23:02:20.755Z,14.73
2019-01-11T23:04:52.763Z,14.53
2019-01-11T23:07:51.661Z,16.47
2019-01-11T23:11:08.779Z,13.20
2019-01-11T23:13:40.828Z,13.20
2019-01-11T23:16:30.026Z,14.50
2019-01-11T23:19:02.025Z,15.17
2019-01-11T23:21:34.070Z,14.90
2019-01-11T23:24:06.118Z,15.80
2019-01-11T23:26:38.139Z,15.53
2019-01-11T23:29:10.130Z,15.37
2019-01-11T23:31:42.204Z,15.07
2019-01-11T23:34:14.202Z,15.97
2019-01-11T23:36:46.215Z,15.00
2019-01-11T23:39:18.233Z,14.27
2019-01-11T23:41:50.260Z,14.40
2019-01-11T23:44:22.303Z,14.27
2019-01-11T23:46:54.342Z,16.30
2019-01-11T23:49:26.425Z,14.43
2019-01-11T23:51:58.433Z,14.17
2019-01-11T23:54:30.458Z,15.20
2019-01-11T23:57:02.552Z,13.93
2019-01-11T23:59:34.583Z,12.47
